sensor_id;sensor_type;location;lat;lon;timestamp;P1;durP1;ratioP1;P2;durP2;ratioP2
6029;SDS011;3043;42.682;23.376;2022-07-09T00:00:37;9.60;;;8.07;;
6029;SDS011;3043;42.682;23.376;2022-07-09T00:03:02;11.70;;;8.70;;
6029;SDS011;3043;42.682;23.376;2022-07-09T00:05:28;11.27;;;9.20;;
6029;SDS011;3043;42.682;23.376;2022-07-09T00:07:53;11.17;;;9.53;;
6029;SDS011;3043;42.682;23.376;2022-07-09T00:10:19;10.17;;;8.57;;
6029;SDS011;3043;42.682;23.376;2022-07-09T00:12:44;11.37;;;9.20;;
6029;SDS011;3043;42.682;23.376;2022-07-09T00:15:10;11.17;;;8.97;;
6029;SDS011;3043;42.682;23.376;2022-07-09T00:17:35;11.87;;;9.43;;
6029;SDS011;3043;42.682;23.376;2022-07-09T00:20:01;12.20;;;10.30;;
6029;SDS011;3043;42.682;23.376;2022-07-09T00:22:30;14.13;;;12.27;;
6029;SDS011;3043;42.682;23.376;2022-07-09T00:24:56;15.93;;;14.30;;
6029;SDS011;3043;42.682;23.376;2022-07-09T00:27:22;14.77;;;13.10;;
6029;SDS011;3043;42.682;23.376;2022-07-09T00:29:47;12.53;;;11.30;;
6029;SDS011;3043;42.682;23.376;2022-07-09T00:32:13;12.27;;;10.90;;
6029;SDS011;3043;42.682;23.376;2022-07-09T00:34:38;11.77;;;9.60;;
6029;SDS011;3043;42.682;23.376;2022-07-09T00:37:04;11.13;;;9.23;;
6029;SDS011;3043;42.682;23.376;2022-07-09T00:39:30;11.83;;;9.13;;
6029;SDS011;3043;42.682;23.376;2022-07-09T00:42:02;11.07;;;9.50;;
6029;SDS011;3043;42.682;23.376;2022-07-09T00:44:31;11.80;;;9.17;;
6029;SDS011;3043;42.682;23.376;2022-07-09T00:46:57;9.80;;;8.80;;
6029;SDS011;3043;42.682;23.376;2022-07-09T00:49:24;11.10;;;9.50;;
6029;SDS011;3043;42.682;23.376;2022-07-09T00:51:52;9.90;;;8.57;;
6029;SDS011;3043;42.682;23.376;2022-07-09T00:54:17;11.07;;;9.33;;
6029;SDS011;3043;42.682;23.376;2022-07-09T00:56:43;11.83;;;9.43;;
6029;SDS011;3043;42.682;23.376;2022-07-09T00:59:09;11.60;;;9.60;;
6029;SDS011;3043;42.682;23.376;2022-07-09T01:01:38;10.40;;;8.77;;
6029;SDS011;3043;42.682;23.376;2022-07-09T01:04:05;11.47;;;9.47;;
6029;SDS011;3043;42.682;23.376;2022-07-09T01:06:31;13.57;;;9.17;;
6029;SDS011;3043;42.682;23.376;2022-07-09T01:08:56;11.43;;;9.83;;
6029;SDS011;3043;42.682;23.376;2022-07-09T01:11:22;13.43;;;11.10;;
6029;SDS011;3043;42.682;23.376;2022-07-09T01:13:47;13.33;;;10.40;;
6029;SDS011;3043;42.682;23.376;2022-07-09T01:16:14;12.93;;;11.10;;
6029;SDS011;3043;42.682;23.376;2022-07-09T01:18:43;14.43;;;12.27;;
6029;SDS011;3043;42.682;23.376;2022-07-09T01:21:10;15.43;;;12.43;;
6029;SDS011;3043;42.682;23.376;2022-07-09T01:23:35;12.80;;;10.67;;
6029;SDS011;3043;42.682;23.376;2022-07-09T01:26:00;14.83;;;11.40;;
6029;SDS011;3043;42.682;23.376;2022-07-09T01:28:26;13.37;;;10.93;;
6029;SDS011;3043;42.682;23.376;2022-07-09T01:30:52;11.90;;;10.30;;
6029;SDS011;3043;42.682;23.376;2022-07-09T01:33:17;14.57;;;9.80;;
6029;SDS011;3043;42.682;23.376;2022-07-09T01:35:42;11.10;;;9.00;;
6029;SDS011;3043;42.682;23.376;2022-07-09T01:38:08;11.37;;;9.20;;
6029;SDS011;3043;42.682;23.376;2022-07-09T01:40:33;13.67;;;9.00;;
6029;SDS011;3043;42.682;23.376;2022-07-09T01:42:59;10.57;;;8.70;;
6029;SDS011;3043;42.682;23.376;2022-07-09T01:45:24;9.93;;;8.17;;
6029;SDS011;3043;42.682;23.376;2022-07-09T01:47:50;11.40;;;8.77;;
6029;SDS011;3043;42.682;23.376;2022-07-09T01:50:15;10.30;;;8.00;;
6029;SDS011;3043;42.682;23.376;2022-07-09T01:52:41;9.50;;;7.37;;
6029;SDS011;3043;42.682;23.376;2022-07-09T01:55:07;9.80;;;7.87;;
6029;SDS011;3043;42.682;23.376;2022-07-09T01:57:32;8.80;;;7.03;;
6029;SDS011;3043;42.682;23.376;2022-07-09T01:59:58;9.40;;;7.33;;
6029;SDS011;3043;42.682;23.376;2022-07-09T02:02:23;12.33;;;7.73;;
6029;SDS011;3043;42.682;23.376;2022-07-09T02:04:49;10.17;;;7.63;;
6029;SDS011;3043;42.682;23.376;2022-07-09T02:07:15;9.17;;;6.93;;
6029;SDS011;3043;42.682;23.376;2022-07-09T02:09:40;9.37;;;7.73;;
6029;SDS011;3043;42.682;23.376;2022-07-09T02:12:06;10.23;;;7.60;;
6029;SDS011;3043;42.682;23.376;2022-07-09T02:14:33;9.20;;;6.87;;
6029;SDS011;3043;42.682;23.376;2022-07-09T02:16:59;8.77;;;6.83;;
6029;SDS011;3043;42.682;23.376;2022-07-09T02:19:24;10.87;;;7.90;;
6029;SDS011;3043;42.682;23.376;2022-07-09T02:21:50;9.67;;;6.83;;
6029;SDS011;3043;42.682;23.376;2022-07-09T02:24:16;8.90;;;6.67;;
6029;SDS011;3043;42.682;23.376;2022-07-09T02:26:41;8.37;;;6.77;;
6029;SDS011;3043;42.682;23.376;2022-07-09T02:29:07;8.27;;;6.63;;
6029;SDS011;3043;42.682;23.376;2022-07-09T02:31:32;9.70;;;6.83;;
6029;SDS011;3043;42.682;23.376;2022-07-09T02:33:58;9.27;;;6.80;;
6029;SDS011;3043;42.682;23.376;2022-07-09T02:36:23;8.30;;;6.70;;
6029;SDS011;3043;42.682;23.376;2022-07-09T02:38:49;8.20;;;5.93;;
6029;SDS011;3043;42.682;23.376;2022-07-09T02:41:14;8.53;;;7.30;;
6029;SDS011;3043;42.682;23.376;2022-07-09T02:43:40;8.10;;;6.20;;
6029;SDS011;3043;42.682;23.376;2022-07-09T02:46:09;9.30;;;6.67;;
6029;SDS011;3043;42.682;23.376;2022-07-09T02:48:37;7.40;;;5.63;;
6029;SDS011;3043;42.682;23.376;2022-07-09T02:51:03;8.90;;;7.00;;
6029;SDS011;3043;42.682;23.376;2022-07-09T02:53:29;7.70;;;6.30;;
6029;SDS011;3043;42.682;23.376;2022-07-09T02:55:54;8.47;;;6.73;;
6029;SDS011;3043;42.682;23.376;2022-07-09T02:58:20;7.53;;;6.30;;
6029;SDS011;3043;42.682;23.376;2022-07-09T03:00:46;9.27;;;6.87;;
6029;SDS011;3043;42.682;23.376;2022-07-09T03:03:12;7.87;;;6.70;;
6029;SDS011;3043;42.682;23.376;2022-07-09T03:05:37;8.80;;;5.90;;
6029;SDS011;3043;42.682;23.376;2022-07-09T03:08:03;7.90;;;6.17;;
6029;SDS011;3043;42.682;23.376;2022-07-09T03:10:28;7.57;;;5.83;;
6029;SDS011;3043;42.682;23.376;2022-07-09T03:12:54;8.63;;;6.20;;
6029;SDS011;3043;42.682;23.376;2022-07-09T03:15:19;9.10;;;6.20;;
6029;SDS011;3043;42.682;23.376;2022-07-09T03:17:45;7.83;;;6.27;;
6029;SDS011;3043;42.682;23.376;2022-07-09T03:20:12;8.77;;;6.13;;
6029;SDS011;3043;42.682;23.376;2022-07-09T03:22:39;7.30;;;5.67;;
6029;SDS011;3043;42.682;23.376;2022-07-09T03:25:05;10.27;;;6.27;;
6029;SDS011;3043;42.682;23.376;2022-07-09T03:27:31;7.80;;;5.97;;
6029;SDS011;3043;42.682;23.376;2022-07-09T03:29:57;9.03;;;6.57;;
6029;SDS011;3043;42.682;23.376;2022-07-09T03:32:23;8.37;;;6.17;;
6029;SDS011;3043;42.682;23.376;2022-07-09T03:34:49;8.10;;;6.60;;
6029;SDS011;3043;42.682;23.376;2022-07-09T03:37:14;8.87;;;6.67;;
6029;SDS011;3043;42.682;23.376;2022-07-09T03:39:40;7.83;;;6.10;;
6029;SDS011;3043;42.682;23.376;2022-07-09T03:42:05;7.50;;;6.10;;
6029;SDS011;3043;42.682;23.376;2022-07-09T03:44:34;8.30;;;6.70;;
6029;SDS011;3043;42.682;23.376;2022-07-09T03:46:59;9.03;;;5.90;;
6029;SDS011;3043;42.682;23.376;2022-07-09T03:49:25;8.10;;;6.40;;
6029;SDS011;3043;42.682;23.376;2022-07-09T03:51:51;8.70;;;6.43;;
6029;SDS011;3043;42.682;23.376;2022-07-09T03:54:16;9.93;;;7.00;;
6029;SDS011;3043;42.682;23.376;2022-07-09T03:56:42;9.90;;;7.37;;
6029;SDS011;3043;42.682;23.376;2022-07-09T03:59:07;9.03;;;6.83;;
6029;SDS011;3043;42.682;23.376;2022-07-09T04:01:33;8.67;;;7.30;;
6029;SDS011;3043;42.682;23.376;2022-07-09T04:03:58;10.43;;;7.83;;
6029;SDS011;3043;42.682;23.376;2022-07-09T04:06:24;9.07;;;7.80;;
6029;SDS011;3043;42.682;23.376;2022-07-09T04:08:49;9.53;;;8.10;;
6029;SDS011;3043;42.682;23.376;2022-07-09T04:11:15;9.73;;;8.00;;
6029;SDS011;3043;42.682;23.376;2022-07-09T04:13:41;10.77;;;8.23;;
6029;SDS011;3043;42.682;23.376;2022-07-09T04:16:06;9.93;;;7.97;;
6029;SDS011;3043;42.682;23.376;2022-07-09T04:18:32;10.33;;;8.13;;
6029;SDS011;3043;42.682;23.376;2022-07-09T04:20:59;10.23;;;9.13;;
6029;SDS011;3043;42.682;23.376;2022-07-09T04:23:24;10.13;;;8.07;;
6029;SDS011;3043;42.682;23.376;2022-07-09T04:25:50;9.50;;;8.43;;
6029;SDS011;3043;42.682;23.376;2022-07-09T04:28:16;9.90;;;8.20;;
6029;SDS011;3043;42.682;23.376;2022-07-09T04:30:43;10.13;;;7.37;;
6029;SDS011;3043;42.682;23.376;2022-07-09T04:33:11;8.57;;;7.07;;
6029;SDS011;3043;42.682;23.376;2022-07-09T04:35:37;9.47;;;6.57;;
6029;SDS011;3043;42.682;23.376;2022-07-09T04:38:03;8.93;;;6.50;;
6029;SDS011;3043;42.682;23.376;2022-07-09T04:40:28;8.20;;;6.40;;
6029;SDS011;3043;42.682;23.376;2022-07-09T04:42:54;8.07;;;6.60;;
6029;SDS011;3043;42.682;23.376;2022-07-09T04:45:20;8.93;;;6.67;;
6029;SDS011;3043;42.682;23.376;2022-07-09T04:47:45;7.80;;;6.40;;
6029;SDS011;3043;42.682;23.376;2022-07-09T04:50:11;8.13;;;6.90;;
6029;SDS011;3043;42.682;23.376;2022-07-09T04:52:36;9.10;;;6.83;;
6029;SDS011;3043;42.682;23.376;2022-07-09T04:55:03;11.60;;;7.33;;
6029;SDS011;3043;42.682;23.376;2022-07-09T04:57:29;8.97;;;7.53;;
6029;SDS011;3043;42.682;23.376;2022-07-09T04:59:58;9.77;;;7.50;;
6029;SDS011;3043;42.682;23.376;2022-07-09T05:02:24;10.30;;;7.77;;
6029;SDS011;3043;42.682;23.376;2022-07-09T05:04:49;12.10;;;8.77;;
6029;SDS011;3043;42.682;23.376;2022-07-09T05:07:15;11.03;;;9.37;;
6029;SDS011;3043;42.682;23.376;2022-07-09T05:09:40;9.33;;;7.90;;
6029;SDS011;3043;42.682;23.376;2022-07-09T05:12:06;9.13;;;7.50;;
6029;SDS011;3043;42.682;23.376;2022-07-09T05:14:33;9.20;;;7.07;;
6029;SDS011;3043;42.682;23.376;2022-07-09T05:16:59;10.07;;;7.57;;
6029;SDS011;3043;42.682;23.376;2022-07-09T05:19:24;8.73;;;7.03;;
6029;SDS011;3043;42.682;23.376;2022-07-09T05:21:50;8.87;;;6.43;;
6029;SDS011;3043;42.682;23.376;2022-07-09T05:24:15;9.03;;;6.97;;
6029;SDS011;3043;42.682;23.376;2022-07-09T05:26:40;9.10;;;6.83;;
6029;SDS011;3043;42.682;23.376;2022-07-09T05:29:06;9.23;;;7.10;;
6029;SDS011;3043;42.682;23.376;2022-07-09T05:31:31;10.17;;;7.60;;
6029;SDS011;3043;42.682;23.376;2022-07-09T05:33:57;8.23;;;6.67;;
6029;SDS011;3043;42.682;23.376;2022-07-09T05:36:22;7.90;;;6.20;;
6029;SDS011;3043;42.682;23.376;2022-07-09T05:38:48;7.97;;;6.13;;
6029;SDS011;3043;42.682;23.376;2022-07-09T05:41:13;10.20;;;7.77;;
6029;SDS011;3043;42.682;23.376;2022-07-09T05:43:41;11.33;;;8.50;;
6029;SDS011;3043;42.682;23.376;2022-07-09T05:46:07;10.53;;;7.23;;
6029;SDS011;3043;42.682;23.376;2022-07-09T05:48:32;11.23;;;8.50;;
6029;SDS011;3043;42.682;23.376;2022-07-09T05:50:58;19.77;;;14.00;;
6029;SDS011;3043;42.682;23.376;2022-07-09T05:53:23;10.63;;;7.70;;
6029;SDS011;3043;42.682;23.376;2022-07-09T05:55:49;11.03;;;8.00;;
6029;SDS011;3043;42.682;23.376;2022-07-09T05:58:14;8.10;;;6.60;;
6029;SDS011;3043;42.682;23.376;2022-07-09T06:00:40;9.70;;;6.70;;
6029;SDS011;3043;42.682;23.376;2022-07-09T06:03:05;9.23;;;7.13;;
6029;SDS011;3043;42.682;23.376;2022-07-09T06:05:31;13.07;;;9.37;;
6029;SDS011;3043;42.682;23.376;2022-07-09T06:07:56;12.30;;;8.83;;
6029;SDS011;3043;42.682;23.376;2022-07-09T06:10:22;12.80;;;9.73;;
6029;SDS011;3043;42.682;23.376;2022-07-09T06:12:47;9.80;;;7.87;;
6029;SDS011;3043;42.682;23.376;2022-07-09T06:15:13;9.97;;;7.23;;
6029;SDS011;3043;42.682;23.376;2022-07-09T06:17:38;9.83;;;7.47;;
6029;SDS011;3043;42.682;23.376;2022-07-09T06:20:04;9.00;;;6.80;;
6029;SDS011;3043;42.682;23.376;2022-07-09T06:22:31;9.97;;;6.70;;
6029;SDS011;3043;42.682;23.376;2022-07-09T06:24:56;9.03;;;6.00;;
6029;SDS011;3043;42.682;23.376;2022-07-09T06:27:22;7.57;;;5.63;;
6029;SDS011;3043;42.682;23.376;2022-07-09T06:29:47;7.67;;;5.37;;
6029;SDS011;3043;42.682;23.376;2022-07-09T06:32:12;8.83;;;5.30;;
6029;SDS011;3043;42.682;23.376;2022-07-09T06:34:38;7.87;;;5.90;;
6029;SDS011;3043;42.682;23.376;2022-07-09T06:37:03;8.13;;;5.53;;
6029;SDS011;3043;42.682;23.376;2022-07-09T06:39:29;8.90;;;5.60;;
6029;SDS011;3043;42.682;23.376;2022-07-09T06:42:09;8.43;;;5.70;;
6029;SDS011;3043;42.682;23.376;2022-07-09T06:44:35;7.30;;;5.67;;
6029;SDS011;3043;42.682;23.376;2022-07-09T06:47:01;7.40;;;5.80;;
6029;SDS011;3043;42.682;23.376;2022-07-09T06:49:27;7.50;;;5.77;;
6029;SDS011;3043;42.682;23.376;2022-07-09T06:51:53;8.23;;;5.70;;
6029;SDS011;3043;42.682;23.376;2022-07-09T06:54:19;7.13;;;5.30;;
6029;SDS011;3043;42.682;23.376;2022-07-09T06:56:44;7.80;;;5.67;;
6029;SDS011;3043;42.682;23.376;2022-07-09T06:59:10;8.07;;;5.73;;
6029;SDS011;3043;42.682;23.376;2022-07-09T07:01:35;7.47;;;5.20;;
6029;SDS011;3043;42.682;23.376;2022-07-09T07:04:00;9.17;;;4.90;;
6029;SDS011;3043;42.682;23.376;2022-07-09T07:06:26;7.87;;;5.10;;
6029;SDS011;3043;42.682;23.376;2022-07-09T07:08:51;7.10;;;5.17;;
6029;SDS011;3043;42.682;23.376;2022-07-09T07:11:17;8.60;;;5.67;;
6029;SDS011;3043;42.682;23.376;2022-07-09T07:13:42;9.03;;;5.90;;
6029;SDS011;3043;42.682;23.376;2022-07-09T07:16:07;8.13;;;5.90;;
6029;SDS011;3043;42.682;23.376;2022-07-09T07:18:33;8.30;;;5.90;;
6029;SDS011;3043;42.682;23.376;2022-07-09T07:20:58;7.93;;;5.37;;
6029;SDS011;3043;42.682;23.376;2022-07-09T07:23:24;7.10;;;5.13;;
6029;SDS011;3043;42.682;23.376;2022-07-09T07:25:49;29.27;;;17.40;;
6029;SDS011;3043;42.682;23.376;2022-07-09T07:28:15;11.43;;;9.10;;
6029;SDS011;3043;42.682;23.376;2022-07-09T07:30:40;11.63;;;8.27;;
6029;SDS011;3043;42.682;23.376;2022-07-09T07:33:06;15.13;;;10.37;;
6029;SDS011;3043;42.682;23.376;2022-07-09T07:35:31;12.30;;;8.60;;
6029;SDS011;3043;42.682;23.376;2022-07-09T07:37:57;15.53;;;9.70;;
6029;SDS011;3043;42.682;23.376;2022-07-09T07:40:24;16.37;;;10.37;;
6029;SDS011;3043;42.682;23.376;2022-07-09T07:42:50;11.63;;;8.57;;
6029;SDS011;3043;42.682;23.376;2022-07-09T07:45:15;8.80;;;6.53;;
6029;SDS011;3043;42.682;23.376;2022-07-09T07:47:41;7.90;;;5.33;;
6029;SDS011;3043;42.682;23.376;2022-07-09T07:50:06;11.67;;;6.17;;
6029;SDS011;3043;42.682;23.376;2022-07-09T07:52:32;7.87;;;5.63;;
6029;SDS011;3043;42.682;23.376;2022-07-09T07:54:58;13.40;;;8.70;;
6029;SDS011;3043;42.682;23.376;2022-07-09T07:57:23;8.13;;;5.60;;
6029;SDS011;3043;42.682;23.376;2022-07-09T07:59:48;7.67;;;5.30;;
6029;SDS011;3043;42.682;23.376;2022-07-09T08:02:14;8.93;;;6.70;;
6029;SDS011;3043;42.682;23.376;2022-07-09T08:04:40;9.57;;;6.17;;
6029;SDS011;3043;42.682;23.376;2022-07-09T08:07:05;8.30;;;6.00;;
6029;SDS011;3043;42.682;23.376;2022-07-09T08:09:31;6.63;;;5.23;;
6029;SDS011;3043;42.682;23.376;2022-07-09T08:11:59;8.70;;;5.13;;
6029;SDS011;3043;42.682;23.376;2022-07-09T08:14:24;8.40;;;5.80;;
6029;SDS011;3043;42.682;23.376;2022-07-09T08:16:50;8.17;;;5.27;;
6029;SDS011;3043;42.682;23.376;2022-07-09T08:19:15;9.60;;;6.10;;
6029;SDS011;3043;42.682;23.376;2022-07-09T08:21:41;10.20;;;7.23;;
6029;SDS011;3043;42.682;23.376;2022-07-09T08:24:07;7.53;;;5.90;;
6029;SDS011;3043;42.682;23.376;2022-07-09T08:26:32;6.47;;;4.70;;
6029;SDS011;3043;42.682;23.376;2022-07-09T08:28:58;6.70;;;5.07;;
6029;SDS011;3043;42.682;23.376;2022-07-09T08:31:23;6.13;;;4.57;;
6029;SDS011;3043;42.682;23.376;2022-07-09T08:33:49;8.30;;;5.93;;
6029;SDS011;3043;42.682;23.376;2022-07-09T08:36:16;6.17;;;4.87;;
6029;SDS011;3043;42.682;23.376;2022-07-09T08:38:42;6.23;;;4.50;;
6029;SDS011;3043;42.682;23.376;2022-07-09T08:41:08;8.47;;;5.87;;
6029;SDS011;3043;42.682;23.376;2022-07-09T08:43:34;12.33;;;8.67;;
6029;SDS011;3043;42.682;23.376;2022-07-09T08:46:01;8.37;;;5.70;;
6029;SDS011;3043;42.682;23.376;2022-07-09T08:48:26;6.53;;;4.70;;
6029;SDS011;3043;42.682;23.376;2022-07-09T08:50:52;6.63;;;5.50;;
6029;SDS011;3043;42.682;23.376;2022-07-09T08:53:18;6.80;;;5.53;;
6029;SDS011;3043;42.682;23.376;2022-07-09T08:55:44;8.67;;;5.23;;
6029;SDS011;3043;42.682;23.376;2022-07-09T08:58:11;9.00;;;6.63;;
6029;SDS011;3043;42.682;23.376;2022-07-09T09:00:38;7.43;;;5.80;;
6029;SDS011;3043;42.682;23.376;2022-07-09T09:03:05;8.00;;;5.57;;
6029;SDS011;3043;42.682;23.376;2022-07-09T09:05:31;8.20;;;6.07;;
6029;SDS011;3043;42.682;23.376;2022-07-09T09:07:56;10.90;;;7.20;;
6029;SDS011;3043;42.682;23.376;2022-07-09T09:10:22;7.77;;;5.60;;
6029;SDS011;3043;42.682;23.376;2022-07-09T09:12:49;8.87;;;6.93;;
6029;SDS011;3043;42.682;23.376;2022-07-09T09:15:20;13.53;;;8.77;;
6029;SDS011;3043;42.682;23.376;2022-07-09T09:17:46;9.00;;;6.40;;
6029;SDS011;3043;42.682;23.376;2022-07-09T09:20:12;14.33;;;9.67;;
6029;SDS011;3043;42.682;23.376;2022-07-09T09:22:47;10.87;;;7.97;;
6029;SDS011;3043;42.682;23.376;2022-07-09T09:25:24;7.73;;;5.93;;
6029;SDS011;3043;42.682;23.376;2022-07-09T09:27:55;8.70;;;5.97;;
6029;SDS011;3043;42.682;23.376;2022-07-09T09:30:22;9.27;;;6.90;;
6029;SDS011;3043;42.682;23.376;2022-07-09T09:32:58;10.90;;;6.20;;
6029;SDS011;3043;42.682;23.376;2022-07-09T09:35:28;8.87;;;6.57;;
6029;SDS011;3043;42.682;23.376;2022-07-09T09:37:55;9.10;;;7.63;;
6029;SDS011;3043;42.682;23.376;2022-07-09T09:40:22;7.17;;;6.40;;
6029;SDS011;3043;42.682;23.376;2022-07-09T09:42:48;7.63;;;6.13;;
6029;SDS011;3043;42.682;23.376;2022-07-09T09:45:14;8.10;;;6.40;;
6029;SDS011;3043;42.682;23.376;2022-07-09T09:47:46;8.77;;;6.50;;
6029;SDS011;3043;42.682;23.376;2022-07-09T09:50:16;8.50;;;6.40;;
6029;SDS011;3043;42.682;23.376;2022-07-09T09:52:45;6.73;;;5.77;;
6029;SDS011;3043;42.682;23.376;2022-07-09T09:55:11;7.83;;;5.93;;
6029;SDS011;3043;42.682;23.376;2022-07-09T09:57:38;8.17;;;6.10;;
6029;SDS011;3043;42.682;23.376;2022-07-09T10:00:07;6.77;;;5.10;;
6029;SDS011;3043;42.682;23.376;2022-07-09T10:02:34;6.90;;;5.20;;
6029;SDS011;3043;42.682;23.376;2022-07-09T10:05:02;7.97;;;5.43;;
6029;SDS011;3043;42.682;23.376;2022-07-09T10:07:28;6.53;;;5.13;;
6029;SDS011;3043;42.682;23.376;2022-07-09T10:09:55;6.70;;;5.50;;
6029;SDS011;3043;42.682;23.376;2022-07-09T10:12:32;7.73;;;5.23;;
6029;SDS011;3043;42.682;23.376;2022-07-09T10:14:59;7.83;;;5.43;;
6029;SDS011;3043;42.682;23.376;2022-07-09T10:17:26;6.60;;;5.27;;
6029;SDS011;3043;42.682;23.376;2022-07-09T10:22:38;7.20;;;5.53;;
6029;SDS011;3043;42.682;23.376;2022-07-09T10:25:09;6.80;;;5.47;;
6029;SDS011;3043;42.682;23.376;2022-07-09T10:27:46;6.30;;;4.83;;
6029;SDS011;3043;42.682;23.376;2022-07-09T10:30:25;5.97;;;4.50;;
6029;SDS011;3043;42.682;23.376;2022-07-09T10:35:28;5.83;;;4.57;;
6029;SDS011;3043;42.682;23.376;2022-07-09T10:37:53;5.80;;;4.70;;
6029;SDS011;3043;42.682;23.376;2022-07-09T10:40:19;5.63;;;4.33;;
6029;SDS011;3043;42.682;23.376;2022-07-09T10:42:59;5.80;;;3.93;;
6029;SDS011;3043;42.682;23.376;2022-07-09T10:47:56;6.80;;;3.97;;
6029;SDS011;3043;42.682;23.376;2022-07-09T10:50:23;6.83;;;4.10;;
6029;SDS011;3043;42.682;23.376;2022-07-09T10:52:50;4.47;;;2.80;;
6029;SDS011;3043;42.682;23.376;2022-07-09T10:55:17;5.60;;;2.50;;
6029;SDS011;3043;42.682;23.376;2022-07-09T10:57:43;3.40;;;2.30;;
6029;SDS011;3043;42.682;23.376;2022-07-09T11:00:09;4.70;;;2.37;;
6029;SDS011;3043;42.682;23.376;2022-07-09T11:02:50;4.17;;;2.53;;
6029;SDS011;3043;42.682;23.376;2022-07-09T11:05:16;5.20;;;3.30;;
6029;SDS011;3043;42.682;23.376;2022-07-09T11:07:41;5.70;;;3.70;;
6029;SDS011;3043;42.682;23.376;2022-07-09T11:10:07;6.37;;;4.23;;
6029;SDS011;3043;42.682;23.376;2022-07-09T11:12:32;7.40;;;4.33;;
6029;SDS011;3043;42.682;23.376;2022-07-09T11:14:58;5.43;;;3.50;;
6029;SDS011;3043;42.682;23.376;2022-07-09T11:17:23;6.80;;;3.87;;
6029;SDS011;3043;42.682;23.376;2022-07-09T11:19:51;6.20;;;3.70;;
6029;SDS011;3043;42.682;23.376;2022-07-09T11:22:16;7.67;;;4.03;;
6029;SDS011;3043;42.682;23.376;2022-07-09T11:24:41;4.90;;;3.50;;
6029;SDS011;3043;42.682;23.376;2022-07-09T11:27:07;5.20;;;3.43;;
6029;SDS011;3043;42.682;23.376;2022-07-09T11:29:34;5.23;;;3.20;;
6029;SDS011;3043;42.682;23.376;2022-07-09T11:32:01;5.00;;;3.30;;
6029;SDS011;3043;42.682;23.376;2022-07-09T11:34:26;7.73;;;3.93;;
6029;SDS011;3043;42.682;23.376;2022-07-09T11:36:54;6.03;;;3.07;;
6029;SDS011;3043;42.682;23.376;2022-07-09T11:39:25;6.27;;;3.80;;
6029;SDS011;3043;42.682;23.376;2022-07-09T11:41:53;6.10;;;3.90;;
6029;SDS011;3043;42.682;23.376;2022-07-09T11:44:26;5.10;;;3.23;;
6029;SDS011;3043;42.682;23.376;2022-07-09T11:47:11;6.23;;;3.30;;
6029;SDS011;3043;42.682;23.376;2022-07-09T11:49:43;6.67;;;3.23;;
6029;SDS011;3043;42.682;23.376;2022-07-09T11:52:19;7.43;;;3.37;;
6029;SDS011;3043;42.682;23.376;2022-07-09T11:54:56;6.13;;;3.47;;
6029;SDS011;3043;42.682;23.376;2022-07-09T11:57:28;5.33;;;3.43;;
6029;SDS011;3043;42.682;23.376;2022-07-09T11:59:54;5.57;;;3.37;;
6029;SDS011;3043;42.682;23.376;2022-07-09T12:02:28;6.47;;;3.47;;
6029;SDS011;3043;42.682;23.376;2022-07-09T12:04:59;6.93;;;3.53;;
6029;SDS011;3043;42.682;23.376;2022-07-09T12:07:26;7.37;;;4.77;;
6029;SDS011;3043;42.682;23.376;2022-07-09T12:10:02;8.00;;;4.53;;
6029;SDS011;3043;42.682;23.376;2022-07-09T12:12:32;6.77;;;4.17;;
6029;SDS011;3043;42.682;23.376;2022-07-09T12:15:00;6.87;;;4.63;;
6029;SDS011;3043;42.682;23.376;2022-07-09T12:17:27;8.40;;;4.47;;
6029;SDS011;3043;42.682;23.376;2022-07-09T12:19:54;7.37;;;4.47;;
6029;SDS011;3043;42.682;23.376;2022-07-09T12:22:20;8.50;;;3.03;;
6029;SDS011;3043;42.682;23.376;2022-07-09T12:24:48;7.10;;;3.40;;
6029;SDS011;3043;42.682;23.376;2022-07-09T12:27:14;8.97;;;3.40;;
6029;SDS011;3043;42.682;23.376;2022-07-09T12:29:40;6.03;;;3.60;;
6029;SDS011;3043;42.682;23.376;2022-07-09T12:32:06;5.73;;;3.87;;
6029;SDS011;3043;42.682;23.376;2022-07-09T12:34:31;6.70;;;3.57;;
6029;SDS011;3043;42.682;23.376;2022-07-09T12:36:57;5.13;;;3.53;;
6029;SDS011;3043;42.682;23.376;2022-07-09T12:39:22;5.83;;;3.40;;
6029;SDS011;3043;42.682;23.376;2022-07-09T12:41:47;5.83;;;3.43;;
6029;SDS011;3043;42.682;23.376;2022-07-09T12:44:13;7.20;;;4.43;;
6029;SDS011;3043;42.682;23.376;2022-07-09T12:46:38;5.13;;;3.40;;
6029;SDS011;3043;42.682;23.376;2022-07-09T12:49:04;4.93;;;3.40;;
6029;SDS011;3043;42.682;23.376;2022-07-09T12:51:29;6.10;;;3.80;;
6029;SDS011;3043;42.682;23.376;2022-07-09T12:53:55;5.13;;;3.30;;
6029;SDS011;3043;42.682;23.376;2022-07-09T12:56:20;5.00;;;3.23;;
6029;SDS011;3043;42.682;23.376;2022-07-09T12:58:46;4.93;;;3.50;;
6029;SDS011;3043;42.682;23.376;2022-07-09T13:01:11;4.60;;;2.70;;
6029;SDS011;3043;42.682;23.376;2022-07-09T13:03:37;9.27;;;3.37;;
6029;SDS011;3043;42.682;23.376;2022-07-09T13:06:02;5.70;;;3.30;;
6029;SDS011;3043;42.682;23.376;2022-07-09T13:08:28;4.67;;;3.13;;
6029;SDS011;3043;42.682;23.376;2022-07-09T13:10:54;5.60;;;3.50;;
6029;SDS011;3043;42.682;23.376;2022-07-09T13:13:19;5.70;;;3.90;;
6029;SDS011;3043;42.682;23.376;2022-07-09T13:15:45;6.17;;;3.47;;
6029;SDS011;3043;42.682;23.376;2022-07-09T13:18:10;4.90;;;3.30;;
6029;SDS011;3043;42.682;23.376;2022-07-09T13:20:36;4.60;;;3.40;;
6029;SDS011;3043;42.682;23.376;2022-07-09T13:23:02;4.97;;;3.10;;
6029;SDS011;3043;42.682;23.376;2022-07-09T13:25:27;4.93;;;3.07;;
6029;SDS011;3043;42.682;23.376;2022-07-09T13:27:53;5.40;;;3.30;;
6029;SDS011;3043;42.682;23.376;2022-07-09T13:30:18;6.27;;;3.70;;
6029;SDS011;3043;42.682;23.376;2022-07-09T13:32:49;6.60;;;3.77;;
6029;SDS011;3043;42.682;23.376;2022-07-09T13:35:15;5.20;;;3.40;;
6029;SDS011;3043;42.682;23.376;2022-07-09T13:37:40;5.97;;;3.27;;
6029;SDS011;3043;42.682;23.376;2022-07-09T13:40:06;7.83;;;3.90;;
6029;SDS011;3043;42.682;23.376;2022-07-09T13:42:32;6.43;;;3.43;;
6029;SDS011;3043;42.682;23.376;2022-07-09T13:44:58;5.77;;;3.90;;
6029;SDS011;3043;42.682;23.376;2022-07-09T13:47:23;5.50;;;3.50;;
6029;SDS011;3043;42.682;23.376;2022-07-09T13:49:49;6.70;;;3.20;;
6029;SDS011;3043;42.682;23.376;2022-07-09T13:52:14;8.17;;;3.50;;
6029;SDS011;3043;42.682;23.376;2022-07-09T13:54:40;4.70;;;3.37;;
6029;SDS011;3043;42.682;23.376;2022-07-09T13:57:05;4.80;;;3.20;;
6029;SDS011;3043;42.682;23.376;2022-07-09T13:59:31;5.43;;;3.50;;
6029;SDS011;3043;42.682;23.376;2022-07-09T14:01:57;5.10;;;3.40;;
6029;SDS011;3043;42.682;23.376;2022-07-09T14:04:22;4.23;;;2.90;;
6029;SDS011;3043;42.682;23.376;2022-07-09T14:06:48;5.87;;;3.50;;
6029;SDS011;3043;42.682;23.376;2022-07-09T14:09:14;6.47;;;3.60;;
6029;SDS011;3043;42.682;23.376;2022-07-09T14:11:44;4.87;;;3.47;;
6029;SDS011;3043;42.682;23.376;2022-07-09T14:14:09;6.30;;;3.43;;
6029;SDS011;3043;42.682;23.376;2022-07-09T14:16:35;6.20;;;3.70;;
6029;SDS011;3043;42.682;23.376;2022-07-09T14:19:00;8.07;;;3.60;;
6029;SDS011;3043;42.682;23.376;2022-07-09T14:21:26;5.23;;;3.63;;
6029;SDS011;3043;42.682;23.376;2022-07-09T14:23:53;7.40;;;5.10;;
6029;SDS011;3043;42.682;23.376;2022-07-09T14:26:18;5.83;;;3.83;;
6029;SDS011;3043;42.682;23.376;2022-07-09T14:28:44;6.07;;;3.87;;
6029;SDS011;3043;42.682;23.376;2022-07-09T14:31:09;6.97;;;3.73;;
6029;SDS011;3043;42.682;23.376;2022-07-09T14:33:34;7.50;;;3.77;;
6029;SDS011;3043;42.682;23.376;2022-07-09T14:36:00;6.27;;;3.50;;
6029;SDS011;3043;42.682;23.376;2022-07-09T14:38:25;5.70;;;3.63;;
6029;SDS011;3043;42.682;23.376;2022-07-09T14:40:51;6.30;;;3.70;;
6029;SDS011;3043;42.682;23.376;2022-07-09T14:43:16;5.60;;;3.70;;
6029;SDS011;3043;42.682;23.376;2022-07-09T14:45:42;6.63;;;3.17;;
6029;SDS011;3043;42.682;23.376;2022-07-09T14:48:07;5.93;;;3.67;;
6029;SDS011;3043;42.682;23.376;2022-07-09T14:50:35;6.53;;;3.80;;
6029;SDS011;3043;42.682;23.376;2022-07-09T14:53:01;5.70;;;3.77;;
6029;SDS011;3043;42.682;23.376;2022-07-09T14:55:27;5.80;;;4.00;;
6029;SDS011;3043;42.682;23.376;2022-07-09T14:57:53;7.73;;;3.70;;
6029;SDS011;3043;42.682;23.376;2022-07-09T15:00:20;6.83;;;3.93;;